sensor_id;sensor_type;location;lat;lon;timestamp;P1;durP1;ratioP1;P2;durP2;ratioP2
35188;SDS011;21762;54.480;18.556;2022-11-15T00:01:26;58.08;;;29.30;;
35188;SDS011;21762;54.480;18.556;2022-11-15T00:04:13;57.22;;;29.17;;
35188;SDS011;21762;54.480;18.556;2022-11-15T00:07:00;55.63;;;28.73;;
35188;SDS011;21762;54.480;18.556;2022-11-15T00:09:47;61.20;;;29.77;;
35188;SDS011;21762;54.480;18.556;2022-11-15T00:12:34;70.30;;;30.67;;
35188;SDS011;21762;54.480;18.556;2022-11-15T00:15:22;62.78;;;28.13;;
35188;SDS011;21762;54.480;18.556;2022-11-15T00:18:11;61.85;;;28.58;;
35188;SDS011;21762;54.480;18.556;2022-11-15T00:21:03;58.47;;;28.33;;
35188;SDS011;21762;54.480;18.556;2022-11-15T00:23:51;62.55;;;29.90;;
35188;SDS011;21762;54.480;18.556;2022-11-15T00:26:38;59.78;;;28.83;;
35188;SDS011;21762;54.480;18.556;2022-11-15T00:29:25;66.35;;;31.38;;
35188;SDS011;21762;54.480;18.556;2022-11-15T00:32:13;60.40;;;29.35;;
35188;SDS011;21762;54.480;18.556;2022-11-15T00:35:00;61.28;;;29.00;;
35188;SDS011;21762;54.480;18.556;2022-11-15T00:37:47;62.28;;;29.40;;
35188;SDS011;21762;54.480;18.556;2022-11-15T00:40:33;63.50;;;29.67;;
35188;SDS011;21762;54.480;18.556;2022-11-15T00:43:20;59.67;;;28.08;;
35188;SDS011;21762;54.480;18.556;2022-11-15T00:46:07;69.63;;;30.80;;
35188;SDS011;21762;54.480;18.556;2022-11-15T00:48:56;61.58;;;29.13;;
35188;SDS011;21762;54.480;18.556;2022-11-15T00:51:43;61.30;;;29.67;;
35188;SDS011;21762;54.480;18.556;2022-11-15T00:54:30;60.55;;;28.27;;
35188;SDS011;21762;54.480;18.556;2022-11-15T00:57:16;64.80;;;30.08;;
35188;SDS011;21762;54.480;18.556;2022-11-15T01:00:04;59.25;;;30.08;;
35188;SDS011;21762;54.480;18.556;2022-11-15T01:02:52;64.63;;;29.50;;
35188;SDS011;21762;54.480;18.556;2022-11-15T01:05:39;62.70;;;28.33;;
35188;SDS011;21762;54.480;18.556;2022-11-15T01:08:26;68.13;;;30.83;;
35188;SDS011;21762;54.480;18.556;2022-11-15T01:11:14;61.40;;;27.33;;
35188;SDS011;21762;54.480;18.556;2022-11-15T01:14:00;63.97;;;29.23;;
35188;SDS011;21762;54.480;18.556;2022-11-15T01:16:47;66.28;;;28.75;;
35188;SDS011;21762;54.480;18.556;2022-11-15T01:19:34;71.10;;;30.77;;
35188;SDS011;21762;54.480;18.556;2022-11-15T01:22:22;69.45;;;30.27;;
35188;SDS011;21762;54.480;18.556;2022-11-15T01:25:09;70.63;;;31.23;;
35188;SDS011;21762;54.480;18.556;2022-11-15T01:27:57;66.43;;;29.40;;
35188;SDS011;21762;54.480;18.556;2022-11-15T01:30:43;67.97;;;30.48;;
35188;SDS011;21762;54.480;18.556;2022-11-15T01:33:30;68.88;;;28.83;;
35188;SDS011;21762;54.480;18.556;2022-11-15T01:36:18;61.97;;;28.55;;
35188;SDS011;21762;54.480;18.556;2022-11-15T01:39:08;59.92;;;27.17;;
35188;SDS011;21762;54.480;18.556;2022-11-15T01:41:56;65.72;;;27.73;;
35188;SDS011;21762;54.480;18.556;2022-11-15T01:44:43;65.13;;;27.48;;
35188;SDS011;21762;54.480;18.556;2022-11-15T01:47:33;65.47;;;29.48;;
35188;SDS011;21762;54.480;18.556;2022-11-15T01:50:23;67.65;;;28.85;;
35188;SDS011;21762;54.480;18.556;2022-11-15T01:53:12;70.15;;;30.75;;
35188;SDS011;21762;54.480;18.556;2022-11-15T01:56:00;77.20;;;31.45;;
35188;SDS011;21762;54.480;18.556;2022-11-15T01:58:48;72.85;;;30.92;;
35188;SDS011;21762;54.480;18.556;2022-11-15T02:01:37;73.07;;;30.27;;
35188;SDS011;21762;54.480;18.556;2022-11-15T02:04:24;67.82;;;30.25;;
35188;SDS011;21762;54.480;18.556;2022-11-15T02:07:13;66.28;;;30.88;;
35188;SDS011;21762;54.480;18.556;2022-11-15T02:10:04;71.13;;;29.02;;
35188;SDS011;21762;54.480;18.556;2022-11-15T02:12:54;65.90;;;28.67;;
35188;SDS011;21762;54.480;18.556;2022-11-15T02:15:43;65.53;;;27.05;;
35188;SDS011;21762;54.480;18.556;2022-11-15T02:18:40;64.25;;;26.80;;
35188;SDS011;21762;54.480;18.556;2022-11-15T02:21:31;62.25;;;27.80;;
35188;SDS011;21762;54.480;18.556;2022-11-15T02:27:53;62.10;;;26.15;;
35188;SDS011;21762;54.480;18.556;2022-11-15T02:31:03;63.78;;;25.25;;
35188;SDS011;21762;54.480;18.556;2022-11-15T02:33:53;60.42;;;25.00;;
35188;SDS011;21762;54.480;18.556;2022-11-15T02:36:43;56.10;;;24.52;;
35188;SDS011;21762;54.480;18.556;2022-11-15T02:39:36;58.25;;;24.98;;
35188;SDS011;21762;54.480;18.556;2022-11-15T02:42:28;64.03;;;26.45;;
35188;SDS011;21762;54.480;18.556;2022-11-15T02:45:41;61.33;;;25.27;;
35188;SDS011;21762;54.480;18.556;2022-11-15T02:48:32;61.38;;;25.75;;
35188;SDS011;21762;54.480;18.556;2022-11-15T02:51:19;63.22;;;23.90;;
35188;SDS011;21762;54.480;18.556;2022-11-15T02:54:09;57.60;;;24.42;;
35188;SDS011;21762;54.480;18.556;2022-11-15T02:56:59;60.30;;;24.75;;
35188;SDS011;21762;54.480;18.556;2022-11-15T02:59:54;61.38;;;25.17;;
35188;SDS011;21762;54.480;18.556;2022-11-15T03:02:52;59.38;;;24.08;;
35188;SDS011;21762;54.480;18.556;2022-11-15T03:06:00;60.45;;;25.40;;
35188;SDS011;21762;54.480;18.556;2022-11-15T03:08:54;60.05;;;26.02;;
35188;SDS011;21762;54.480;18.556;2022-11-15T03:11:48;64.10;;;25.15;;
35188;SDS011;21762;54.480;18.556;2022-11-15T03:14:37;67.80;;;26.58;;
35188;SDS011;21762;54.480;18.556;2022-11-15T03:20:17;55.85;;;24.92;;
35188;SDS011;21762;54.480;18.556;2022-11-15T03:23:08;63.15;;;26.33;;
35188;SDS011;21762;54.480;18.556;2022-11-15T03:25:56;58.30;;;26.52;;
35188;SDS011;21762;54.480;18.556;2022-11-15T03:28:46;62.20;;;23.73;;
35188;SDS011;21762;54.480;18.556;2022-11-15T03:31:37;64.00;;;26.90;;
35188;SDS011;21762;54.480;18.556;2022-11-15T03:34:36;60.63;;;25.65;;
35188;SDS011;21762;54.480;18.556;2022-11-15T03:37:27;62.25;;;24.27;;
35188;SDS011;21762;54.480;18.556;2022-11-15T03:40:21;68.28;;;25.38;;
35188;SDS011;21762;54.480;18.556;2022-11-15T03:43:13;63.17;;;25.75;;
35188;SDS011;21762;54.480;18.556;2022-11-15T03:46:07;63.60;;;25.42;;
35188;SDS011;21762;54.480;18.556;2022-11-15T03:48:59;64.45;;;25.83;;
35188;SDS011;21762;54.480;18.556;2022-11-15T03:51:49;64.57;;;26.13;;
35188;SDS011;21762;54.480;18.556;2022-11-15T03:54:36;61.60;;;25.33;;
35188;SDS011;21762;54.480;18.556;2022-11-15T03:57:27;62.33;;;25.52;;
35188;SDS011;21762;54.480;18.556;2022-11-15T04:00:15;57.20;;;22.70;;
35188;SDS011;21762;54.480;18.556;2022-11-15T04:03:02;51.10;;;20.70;;
35188;SDS011;21762;54.480;18.556;2022-11-15T04:05:49;57.42;;;22.73;;
35188;SDS011;21762;54.480;18.556;2022-11-15T04:08:36;53.17;;;21.98;;
35188;SDS011;21762;54.480;18.556;2022-11-15T04:11:23;52.88;;;21.27;;
35188;SDS011;21762;54.480;18.556;2022-11-15T04:14:11;48.42;;;20.75;;
35188;SDS011;21762;54.480;18.556;2022-11-15T04:16:58;52.95;;;22.38;;
35188;SDS011;21762;54.480;18.556;2022-11-15T04:19:44;56.30;;;22.27;;
35188;SDS011;21762;54.480;18.556;2022-11-15T04:22:48;55.15;;;22.85;;
35188;SDS011;21762;54.480;18.556;2022-11-15T04:25:53;56.25;;;22.90;;
35188;SDS011;21762;54.480;18.556;2022-11-15T04:28:40;53.40;;;20.05;;
35188;SDS011;21762;54.480;18.556;2022-11-15T04:31:42;55.45;;;22.40;;
35188;SDS011;21762;54.480;18.556;2022-11-15T04:34:29;53.80;;;21.35;;
35188;SDS011;21762;54.480;18.556;2022-11-15T04:37:16;54.88;;;21.65;;
35188;SDS011;21762;54.480;18.556;2022-11-15T04:40:04;53.17;;;21.10;;
35188;SDS011;21762;54.480;18.556;2022-11-15T04:42:52;50.92;;;20.05;;
35188;SDS011;21762;54.480;18.556;2022-11-15T04:45:41;57.55;;;21.67;;
35188;SDS011;21762;54.480;18.556;2022-11-15T04:48:29;48.33;;;20.08;;
35188;SDS011;21762;54.480;18.556;2022-11-15T04:51:16;52.50;;;20.92;;
35188;SDS011;21762;54.480;18.556;2022-11-15T04:54:03;59.45;;;22.30;;
35188;SDS011;21762;54.480;18.556;2022-11-15T04:56:50;52.22;;;21.38;;
35188;SDS011;21762;54.480;18.556;2022-11-15T04:59:37;59.30;;;20.88;;
35188;SDS011;21762;54.480;18.556;2022-11-15T05:02:24;51.63;;;20.92;;
35188;SDS011;21762;54.480;18.556;2022-11-15T05:05:32;52.65;;;21.30;;
35188;SDS011;21762;54.480;18.556;2022-11-15T05:08:18;59.50;;;22.85;;
35188;SDS011;21762;54.480;18.556;2022-11-15T05:11:05;54.22;;;21.67;;
35188;SDS011;21762;54.480;18.556;2022-11-15T05:13:52;56.38;;;24.05;;
35188;SDS011;21762;54.480;18.556;2022-11-15T05:16:39;51.35;;;21.58;;
35188;SDS011;21762;54.480;18.556;2022-11-15T05:19:27;54.13;;;19.90;;
35188;SDS011;21762;54.480;18.556;2022-11-15T05:22:15;64.93;;;25.33;;
35188;SDS011;21762;54.480;18.556;2022-11-15T05:25:02;53.50;;;21.38;;
35188;SDS011;21762;54.480;18.556;2022-11-15T05:27:49;58.05;;;22.38;;
35188;SDS011;21762;54.480;18.556;2022-11-15T05:30:37;55.80;;;22.25;;
35188;SDS011;21762;54.480;18.556;2022-11-15T05:33:24;59.33;;;23.48;;
35188;SDS011;21762;54.480;18.556;2022-11-15T05:36:12;58.85;;;22.92;;
35188;SDS011;21762;54.480;18.556;2022-11-15T05:39:04;60.63;;;21.80;;
35188;SDS011;21762;54.480;18.556;2022-11-15T05:41:54;60.63;;;22.35;;
35188;SDS011;21762;54.480;18.556;2022-11-15T05:44:44;61.83;;;22.20;;
35188;SDS011;21762;54.480;18.556;2022-11-15T05:47:33;64.03;;;24.40;;
35188;SDS011;21762;54.480;18.556;2022-11-15T05:50:22;60.42;;;24.17;;
35188;SDS011;21762;54.480;18.556;2022-11-15T05:53:09;58.10;;;22.00;;
35188;SDS011;21762;54.480;18.556;2022-11-15T05:55:59;56.40;;;21.20;;
35188;SDS011;21762;54.480;18.556;2022-11-15T05:58:46;55.28;;;22.17;;
35188;SDS011;21762;54.480;18.556;2022-11-15T06:01:35;60.53;;;22.55;;
35188;SDS011;21762;54.480;18.556;2022-11-15T06:04:22;57.67;;;23.10;;
35188;SDS011;21762;54.480;18.556;2022-11-15T06:07:09;56.08;;;22.05;;
35188;SDS011;21762;54.480;18.556;2022-11-15T06:09:55;56.80;;;21.15;;
35188;SDS011;21762;54.480;18.556;2022-11-15T06:12:44;59.97;;;23.67;;
35188;SDS011;21762;54.480;18.556;2022-11-15T06:15:31;64.78;;;23.15;;
35188;SDS011;21762;54.480;18.556;2022-11-15T06:18:18;56.92;;;22.15;;
35188;SDS011;21762;54.480;18.556;2022-11-15T06:21:05;65.15;;;22.00;;
35188;SDS011;21762;54.480;18.556;2022-11-15T06:23:52;58.65;;;23.23;;
35188;SDS011;21762;54.480;18.556;2022-11-15T06:26:39;60.75;;;23.55;;
35188;SDS011;21762;54.480;18.556;2022-11-15T06:29:27;69.72;;;23.90;;
35188;SDS011;21762;54.480;18.556;2022-11-15T06:32:14;62.33;;;24.50;;
35188;SDS011;21762;54.480;18.556;2022-11-15T06:35:02;68.22;;;24.88;;
35188;SDS011;21762;54.480;18.556;2022-11-15T06:37:49;66.15;;;22.73;;
35188;SDS011;21762;54.480;18.556;2022-11-15T06:40:36;66.35;;;23.27;;
35188;SDS011;21762;54.480;18.556;2022-11-15T06:43:23;59.22;;;23.05;;
35188;SDS011;21762;54.480;18.556;2022-11-15T06:46:12;64.20;;;23.80;;
35188;SDS011;21762;54.480;18.556;2022-11-15T06:48:59;59.25;;;23.15;;
35188;SDS011;21762;54.480;18.556;2022-11-15T06:51:49;66.05;;;25.63;;
35188;SDS011;21762;54.480;18.556;2022-11-15T06:54:36;65.15;;;21.95;;
35188;SDS011;21762;54.480;18.556;2022-11-15T06:57:26;68.30;;;24.80;;
35188;SDS011;21762;54.480;18.556;2022-11-15T07:00:13;73.10;;;26.70;;
35188;SDS011;21762;54.480;18.556;2022-11-15T07:03:03;61.40;;;23.67;;
35188;SDS011;21762;54.480;18.556;2022-11-15T07:05:51;64.30;;;23.30;;
35188;SDS011;21762;54.480;18.556;2022-11-15T07:08:39;62.50;;;26.27;;
35188;SDS011;21762;54.480;18.556;2022-11-15T07:11:28;60.70;;;24.35;;
35188;SDS011;21762;54.480;18.556;2022-11-15T07:14:15;59.80;;;23.08;;
35188;SDS011;21762;54.480;18.556;2022-11-15T07:17:03;66.80;;;23.67;;
35188;SDS011;21762;54.480;18.556;2022-11-15T07:19:51;59.10;;;22.65;;
35188;SDS011;21762;54.480;18.556;2022-11-15T07:22:38;63.38;;;23.52;;
35188;SDS011;21762;54.480;18.556;2022-11-15T07:25:25;61.85;;;23.45;;
35188;SDS011;21762;54.480;18.556;2022-11-15T07:28:12;59.85;;;24.50;;
35188;SDS011;21762;54.480;18.556;2022-11-15T07:31:01;57.30;;;23.85;;
35188;SDS011;21762;54.480;18.556;2022-11-15T07:33:48;61.25;;;24.27;;
35188;SDS011;21762;54.480;18.556;2022-11-15T07:36:36;59.55;;;22.08;;
35188;SDS011;21762;54.480;18.556;2022-11-15T07:39:23;64.75;;;22.77;;
35188;SDS011;21762;54.480;18.556;2022-11-15T07:42:10;61.13;;;22.83;;
35188;SDS011;21762;54.480;18.556;2022-11-15T07:45:15;62.10;;;23.35;;
35188;SDS011;21762;54.480;18.556;2022-11-15T07:48:02;63.35;;;23.75;;
35188;SDS011;21762;54.480;18.556;2022-11-15T07:50:49;66.68;;;24.80;;
35188;SDS011;21762;54.480;18.556;2022-11-15T07:53:37;58.53;;;22.55;;
35188;SDS011;21762;54.480;18.556;2022-11-15T07:56:24;63.38;;;23.33;;
35188;SDS011;21762;54.480;18.556;2022-11-15T07:59:11;61.10;;;23.80;;
35188;SDS011;21762;54.480;18.556;2022-11-15T08:01:57;59.25;;;22.00;;
35188;SDS011;21762;54.480;18.556;2022-11-15T08:04:44;59.55;;;23.30;;
35188;SDS011;21762;54.480;18.556;2022-11-15T08:07:32;64.13;;;24.17;;
35188;SDS011;21762;54.480;18.556;2022-11-15T08:10:20;53.33;;;22.30;;
35188;SDS011;21762;54.480;18.556;2022-11-15T08:13:08;53.35;;;21.60;;
35188;SDS011;21762;54.480;18.556;2022-11-15T08:15:57;50.45;;;21.55;;
35188;SDS011;21762;54.480;18.556;2022-11-15T08:18:44;47.55;;;19.83;;
35188;SDS011;21762;54.480;18.556;2022-11-15T08:21:31;55.35;;;21.00;;
35188;SDS011;21762;54.480;18.556;2022-11-15T08:24:18;54.55;;;21.67;;
35188;SDS011;21762;54.480;18.556;2022-11-15T08:27:06;53.05;;;22.02;;
35188;SDS011;21762;54.480;18.556;2022-11-15T08:30:00;52.90;;;21.27;;
35188;SDS011;21762;54.480;18.556;2022-11-15T08:32:47;45.90;;;20.05;;
35188;SDS011;21762;54.480;18.556;2022-11-15T08:35:35;53.50;;;21.92;;
35188;SDS011;21762;54.480;18.556;2022-11-15T08:38:21;52.85;;;21.27;;
35188;SDS011;21762;54.480;18.556;2022-11-15T08:41:10;51.17;;;20.63;;
35188;SDS011;21762;54.480;18.556;2022-11-15T08:44:01;47.53;;;20.95;;
35188;SDS011;21762;54.480;18.556;2022-11-15T08:46:48;53.58;;;21.73;;
35188;SDS011;21762;54.480;18.556;2022-11-15T08:49:35;50.20;;;20.98;;
35188;SDS011;21762;54.480;18.556;2022-11-15T08:52:21;50.33;;;21.15;;
35188;SDS011;21762;54.480;18.556;2022-11-15T08:55:08;48.00;;;20.42;;
35188;SDS011;21762;54.480;18.556;2022-11-15T08:57:56;50.97;;;20.05;;
35188;SDS011;21762;54.480;18.556;2022-11-15T09:00:45;50.58;;;21.85;;
35188;SDS011;21762;54.480;18.556;2022-11-15T09:03:31;59.33;;;22.60;;
35188;SDS011;21762;54.480;18.556;2022-11-15T09:06:18;49.65;;;20.33;;
35188;SDS011;21762;54.480;18.556;2022-11-15T09:09:06;44.88;;;21.85;;
35188;SDS011;21762;54.480;18.556;2022-11-15T09:11:52;45.10;;;21.30;;
35188;SDS011;21762;54.480;18.556;2022-11-15T09:14:42;48.42;;;21.10;;
35188;SDS011;21762;54.480;18.556;2022-11-15T09:17:30;52.45;;;21.52;;
35188;SDS011;21762;54.480;18.556;2022-11-15T09:20:18;51.28;;;20.80;;
35188;SDS011;21762;54.480;18.556;2022-11-15T09:23:05;54.90;;;21.80;;
35188;SDS011;21762;54.480;18.556;2022-11-15T09:25:51;52.25;;;21.30;;
35188;SDS011;21762;54.480;18.556;2022-11-15T09:28:39;41.78;;;17.70;;
35188;SDS011;21762;54.480;18.556;2022-11-15T09:31:27;47.30;;;20.75;;
35188;SDS011;21762;54.480;18.556;2022-11-15T09:34:16;46.72;;;19.17;;
35188;SDS011;21762;54.480;18.556;2022-11-15T09:37:02;37.72;;;17.27;;
35188;SDS011;21762;54.480;18.556;2022-11-15T09:39:49;33.38;;;15.55;;
35188;SDS011;21762;54.480;18.556;2022-11-15T09:42:44;43.50;;;17.60;;
35188;SDS011;21762;54.480;18.556;2022-11-15T09:45:38;34.38;;;15.10;;
35188;SDS011;21762;54.480;18.556;2022-11-15T09:48:41;37.30;;;16.42;;
35188;SDS011;21762;54.480;18.556;2022-11-15T09:51:33;37.83;;;16.58;;
35188;SDS011;21762;54.480;18.556;2022-11-15T09:54:04;38.13;;;15.70;;
35188;SDS011;21762;54.480;18.556;2022-11-15T09:57:02;40.58;;;18.60;;
35188;SDS011;21762;54.480;18.556;2022-11-15T09:59:39;36.15;;;16.20;;
35188;SDS011;21762;54.480;18.556;2022-11-15T10:02:16;38.40;;;17.20;;
35188;SDS011;21762;54.480;18.556;2022-11-15T10:04:49;38.38;;;16.38;;
35188;SDS011;21762;54.480;18.556;2022-11-15T10:07:20;35.90;;;16.88;;
35188;SDS011;21762;54.480;18.556;2022-11-15T10:09:51;39.80;;;17.38;;
35188;SDS011;21762;54.480;18.556;2022-11-15T10:12:24;40.47;;;17.38;;
35188;SDS011;21762;54.480;18.556;2022-11-15T10:14:55;36.55;;;16.15;;
35188;SDS011;21762;54.480;18.556;2022-11-15T10:17:43;34.80;;;15.43;;
35188;SDS011;21762;54.480;18.556;2022-11-15T10:20:28;39.17;;;17.15;;
35188;SDS011;21762;54.480;18.556;2022-11-15T10:23:01;37.58;;;16.35;;
35188;SDS011;21762;54.480;18.556;2022-11-15T10:25:33;45.50;;;17.88;;
35188;SDS011;21762;54.480;18.556;2022-11-15T10:28:06;36.35;;;17.10;;
35188;SDS011;21762;54.480;18.556;2022-11-15T10:30:40;39.88;;;18.25;;
35188;SDS011;21762;54.480;18.556;2022-11-15T10:33:11;35.75;;;16.08;;
35188;SDS011;21762;54.480;18.556;2022-11-15T10:38:11;42.13;;;18.48;;
35188;SDS011;21762;54.480;18.556;2022-11-15T10:40:40;42.85;;;18.70;;
35188;SDS011;21762;54.480;18.556;2022-11-15T10:43:14;48.85;;;19.30;;
35188;SDS011;21762;54.480;18.556;2022-11-15T10:45:44;43.17;;;17.75;;
35188;SDS011;21762;54.480;18.556;2022-11-15T10:48:20;44.55;;;19.60;;
35188;SDS011;21762;54.480;18.556;2022-11-15T10:50:50;42.63;;;19.27;;
35188;SDS011;21762;54.480;18.556;2022-11-15T10:53:22;46.10;;;18.17;;
35188;SDS011;21762;54.480;18.556;2022-11-15T10:55:54;48.45;;;20.25;;
35188;SDS011;21762;54.480;18.556;2022-11-15T10:58:30;45.45;;;19.83;;
35188;SDS011;21762;54.480;18.556;2022-11-15T11:01:11;44.70;;;19.00;;
35188;SDS011;21762;54.480;18.556;2022-11-15T11:03:42;45.70;;;19.58;;
35188;SDS011;21762;54.480;18.556;2022-11-15T11:06:11;48.50;;;19.67;;
35188;SDS011;21762;54.480;18.556;2022-11-15T11:08:54;49.15;;;19.75;;
35188;SDS011;21762;54.480;18.556;2022-11-15T11:11:23;49.10;;;19.40;;
35188;SDS011;21762;54.480;18.556;2022-11-15T11:13:52;49.83;;;20.40;;
35188;SDS011;21762;54.480;18.556;2022-11-15T11:16:32;43.78;;;20.00;;
35188;SDS011;21762;54.480;18.556;2022-11-15T11:19:09;49.17;;;20.52;;
35188;SDS011;21762;54.480;18.556;2022-11-15T11:21:48;50.83;;;19.98;;
35188;SDS011;21762;54.480;18.556;2022-11-15T11:24:22;46.72;;;20.27;;
35188;SDS011;21762;54.480;18.556;2022-11-15T11:26:59;51.10;;;20.73;;
35188;SDS011;21762;54.480;18.556;2022-11-15T11:29:48;50.35;;;20.65;;
35188;SDS011;21762;54.480;18.556;2022-11-15T11:32:25;56.13;;;21.98;;
35188;SDS011;21762;54.480;18.556;2022-11-15T11:37:35;54.15;;;22.75;;
35188;SDS011;21762;54.480;18.556;2022-11-15T11:40:12;47.53;;;20.92;;
35188;SDS011;21762;54.480;18.556;2022-11-15T11:42:50;54.20;;;23.27;;
35188;SDS011;21762;54.480;18.556;2022-11-15T11:45:30;48.90;;;20.75;;
35188;SDS011;21762;54.480;18.556;2022-11-15T11:48:20;49.92;;;22.20;;
35188;SDS011;21762;54.480;18.556;2022-11-15T11:51:03;50.92;;;20.23;;
35188;SDS011;21762;54.480;18.556;2022-11-15T11:53:37;64.82;;;23.75;;
35188;SDS011;21762;54.480;18.556;2022-11-15T11:56:12;63.63;;;23.80;;
35188;SDS011;21762;54.480;18.556;2022-11-15T11:58:45;54.55;;;22.10;;
35188;SDS011;21762;54.480;18.556;2022-11-15T12:01:16;52.72;;;23.05;;
35188;SDS011;21762;54.480;18.556;2022-11-15T12:03:47;56.10;;;21.70;;
35188;SDS011;21762;54.480;18.556;2022-11-15T12:06:20;62.90;;;22.58;;
35188;SDS011;21762;54.480;18.556;2022-11-15T12:08:53;53.65;;;22.10;;
35188;SDS011;21762;54.480;18.556;2022-11-15T12:11:28;61.28;;;24.33;;
35188;SDS011;21762;54.480;18.556;2022-11-15T12:13:58;64.00;;;24.63;;
35188;SDS011;21762;54.480;18.556;2022-11-15T12:16:29;59.83;;;22.85;;
35188;SDS011;21762;54.480;18.556;2022-11-15T12:18:59;58.20;;;24.10;;
35188;SDS011;21762;54.480;18.556;2022-11-15T12:21:32;53.58;;;24.38;;
35188;SDS011;21762;54.480;18.556;2022-11-15T12:24:05;56.80;;;23.63;;
35188;SDS011;21762;54.480;18.556;2022-11-15T12:26:39;63.45;;;24.98;;
35188;SDS011;21762;54.480;18.556;2022-11-15T12:29:12;64.63;;;23.98;;
35188;SDS011;21762;54.480;18.556;2022-11-15T12:31:44;59.78;;;24.05;;
35188;SDS011;21762;54.480;18.556;2022-11-15T12:34:29;61.13;;;25.00;;
35188;SDS011;21762;54.480;18.556;2022-11-15T12:37:08;61.17;;;23.73;;
35188;SDS011;21762;54.480;18.556;2022-11-15T12:46:18;53.30;;;22.05;;
35188;SDS011;21762;54.480;18.556;2022-11-15T12:48:50;53.30;;;23.40;;
35188;SDS011;21762;54.480;18.556;2022-11-15T12:57:53;60.47;;;23.17;;
35188;SDS011;21762;54.480;18.556;2022-11-15T13:03:18;61.28;;;25.77;;
35188;SDS011;21762;54.480;18.556;2022-11-15T13:05:53;64.38;;;24.75;;
35188;SDS011;21762;54.480;18.556;2022-11-15T13:08:38;55.42;;;24.40;;
35188;SDS011;21762;54.480;18.556;2022-11-15T13:17:26;62.83;;;26.17;;
35188;SDS011;21762;54.480;18.556;2022-11-15T13:20:08;66.45;;;26.25;;
35188;SDS011;21762;54.480;18.556;2022-11-15T13:22:48;68.72;;;27.40;;
35188;SDS011;21762;54.480;18.556;2022-11-15T13:25:30;58.78;;;25.90;;
35188;SDS011;21762;54.480;18.556;2022-11-15T13:28:19;57.55;;;25.30;;
35188;SDS011;21762;54.480;18.556;2022-11-15T13:30:52;72.32;;;28.05;;
35188;SDS011;21762;54.480;18.556;2022-11-15T13:33:22;65.07;;;26.10;;
35188;SDS011;21762;54.480;18.556;2022-11-15T13:35:54;68.40;;;26.73;;
35188;SDS011;21762;54.480;18.556;2022-11-15T13:38:28;70.82;;;26.83;;
35188;SDS011;21762;54.480;18.556;2022-11-15T13:40:58;65.05;;;27.20;;
35188;SDS011;21762;54.480;18.556;2022-11-15T13:43:31;66.93;;;26.95;;
35188;SDS011;21762;54.480;18.556;2022-11-15T13:46:04;77.70;;;30.27;;
35188;SDS011;21762;54.480;18.556;2022-11-15T13:48:33;67.60;;;28.80;;
35188;SDS011;21762;54.480;18.556;2022-11-15T13:51:04;72.05;;;28.35;;
35188;SDS011;21762;54.480;18.556;2022-11-15T13:53:34;76.30;;;29.10;;
35188;SDS011;21762;54.480;18.556;2022-11-15T13:56:05;73.28;;;28.98;;
35188;SDS011;21762;54.480;18.556;2022-11-15T13:58:36;77.78;;;29.23;;
35188;SDS011;21762;54.480;18.556;2022-11-15T14:01:05;81.30;;;30.23;;
35188;SDS011;21762;54.480;18.556;2022-11-15T14:03:34;80.32;;;31.63;;
35188;SDS011;21762;54.480;18.556;2022-11-15T14:06:09;90.22;;;30.85;;
35188;SDS011;21762;54.480;18.556;2022-11-15T14:08:39;76.43;;;31.92;;
35188;SDS011;21762;54.480;18.556;2022-11-15T14:11:12;74.68;;;29.85;;
35188;SDS011;21762;54.480;18.556;2022-11-15T14:13:58;91.80;;;29.90;;
35188;SDS011;21762;54.480;18.556;2022-11-15T14:16:32;65.90;;;26.95;;
35188;SDS011;21762;54.480;18.556;2022-11-15T14:19:02;68.82;;;25.85;;
35188;SDS011;21762;54.480;18.556;2022-11-15T14:21:33;73.88;;;26.58;;
35188;SDS011;21762;54.480;18.556;2022-11-15T14:24:14;71.00;;;26.70;;
35188;SDS011;21762;54.480;18.556;2022-11-15T14:26:43;71.20;;;27.60;;
35188;SDS011;21762;54.480;18.556;2022-11-15T14:29:22;70.40;;;28.02;;
35188;SDS011;21762;54.480;18.556;2022-11-15T14:31:51;72.65;;;28.67;;
35188;SDS011;21762;54.480;18.556;2022-11-15T14:34:19;70.20;;;27.08;;
35188;SDS011;21762;54.480;18.556;2022-11-15T14:36:50;81.60;;;27.40;;
35188;SDS011;21762;54.480;18.556;2022-11-15T14:39:18;67.57;;;25.13;;
35188;SDS011;21762;54.480;18.556;2022-11-15T14:41:48;73.68;;;26.67;;
35188;SDS011;21762;54.480;18.556;2022-11-15T14:44:16;65.90;;;25.65;;
35188;SDS011;21762;54.480;18.556;2022-11-15T14:46:46;60.13;;;23.17;;
35188;SDS011;21762;54.480;18.556;2022-11-15T14:49:15;60.97;;;23.95;;
35188;SDS011;21762;54.480;18.556;2022-11-15T14:51:43;58.83;;;22.83;;
35188;SDS011;21762;54.480;18.556;2022-11-15T14:54:13;61.72;;;22.13;;
35188;SDS011;21762;54.480;18.556;2022-11-15T14:56:41;56.15;;;21.52;;
35188;SDS011;21762;54.480;18.556;2022-11-15T14:59:10;56.90;;;23.40;;
35188;SDS011;21762;54.480;18.556;2022-11-15T15:01:38;60.03;;;20.52;;
35188;SDS011;21762;54.480;18.556;2022-11-15T15:04:08;55.95;;;21.63;;
35188;SDS011;21762;54.480;18.556;2022-11-15T15:06:36;55.78;;;21.00;;
35188;SDS011;21762;54.480;18.556;2022-11-15T15:09:05;50.65;;;20.10;;
35188;SDS011;21762;54.480;18.556;2022-11-15T15:11:35;53.20;;;21.27;;
35188;SDS011;21762;54.480;18.556;2022-11-15T15:14:04;62.33;;;20.48;;
35188;SDS011;21762;54.480;18.556;2022-11-15T15:16:32;55.35;;;20.55;;
35188;SDS011;21762;54.480;18.556;2022-11-15T15:19:01;53.13;;;20.80;;
35188;SDS011;21762;54.480;18.556;2022-11-15T15:21:30;50.25;;;19.45;;
35188;SDS011;21762;54.480;18.556;2022-11-15T15:24:02;56.20;;;19.50;;
35188;SDS011;21762;54.480;18.556;2022-11-15T15:26:30;51.60;;;20.33;;
35188;SDS011;21762;54.480;18.556;2022-11-15T15:29:03;47.80;;;18.83;;
35188;SDS011;21762;54.480;18.556;2022-11-15T15:31:31;43.95;;;17.85;;
35188;SDS011;21762;54.480;18.556;2022-11-15T15:34:00;46.67;;;16.85;;
35188;SDS011;21762;54.480;18.556;2022-11-15T15:36:29;48.50;;;18.77;;
35188;SDS011;21762;54.480;18.556;2022-11-15T15:38:57;53.45;;;19.58;;
35188;SDS011;21762;54.480;18.556;2022-11-15T15:41:26;43.47;;;17.90;;
35188;SDS011;21762;54.480;18.556;2022-11-15T15:43:55;43.38;;;18.33;;
35188;SDS011;21762;54.480;18.556;2022-11-15T15:46:25;51.20;;;19.88;;
35188;SDS011;21762;54.480;18.556;2022-11-15T15:48:53;41.45;;;18.23;;
35188;SDS011;21762;54.480;18.556;2022-11-15T15:51:22;42.63;;;17.98;;
35188;SDS011;21762;54.480;18.556;2022-11-15T15:53:50;38.80;;;16.83;;
35188;SDS011;21762;54.480;18.556;2022-11-15T15:56:23;39.72;;;16.33;;
35188;SDS011;21762;54.480;18.556;2022-11-15T15:58:52;40.63;;;17.05;;
35188;SDS011;21762;54.480;18.556;2022-11-15T16:01:22;46.90;;;17.95;;
35188;SDS011;21762;54.480;18.556;2022-11-15T16:03:52;42.70;;;17.65;;
35188;SDS011;21762;54.480;18.556;2022-11-15T16:06:37;45.65;;;20.70;;
35188;SDS011;21762;54.480;18.556;2022-11-15T16:09:08;49.45;;;18.85;;
35188;SDS011;21762;54.480;18.556;2022-11-15T16:11:42;41.20;;;19.25;;